sensor_id;sensor_type;location;lat;lon;timestamp;P1;durP1;ratioP1;P2;durP2;ratioP2
45792;SDS011;31495;42.740;22.908;2024-02-16T00:00:44;31.42;;;12.30;;
45792;SDS011;31495;42.740;22.908;2024-02-16T00:02:45;25.63;;;12.82;;
45792;SDS011;31495;42.740;22.908;2024-02-16T00:03:45;26.63;;;13.10;;
45792;SDS011;31495;42.740;22.908;2024-02-16T00:04:45;28.90;;;14.45;;
45792;SDS011;31495;42.740;22.908;2024-02-16T00:05:44;24.25;;;14.50;;
45792;SDS011;31495;42.740;22.908;2024-02-16T00:06:43;26.90;;;14.20;;
45792;SDS011;31495;42.740;22.908;2024-02-16T00:07:43;27.48;;;14.95;;
45792;SDS011;31495;42.740;22.908;2024-02-16T00:08:42;23.05;;;12.82;;
45792;SDS011;31495;42.740;22.908;2024-02-16T00:09:41;22.40;;;14.07;;
45792;SDS011;31495;42.740;22.908;2024-02-16T00:10:41;25.02;;;14.77;;
45792;SDS011;31495;42.740;22.908;2024-02-16T00:11:41;24.48;;;13.02;;
45792;SDS011;31495;42.740;22.908;2024-02-16T00:12:41;30.60;;;17.10;;
45792;SDS011;31495;42.740;22.908;2024-02-16T00:13:41;36.03;;;17.30;;
45792;SDS011;31495;42.740;22.908;2024-02-16T00:14:40;24.42;;;12.75;;
45792;SDS011;31495;42.740;22.908;2024-02-16T00:15:40;24.02;;;12.52;;
45792;SDS011;31495;42.740;22.908;2024-02-16T00:16:39;28.33;;;12.93;;
45792;SDS011;31495;42.740;22.908;2024-02-16T00:17:39;21.77;;;11.93;;
45792;SDS011;31495;42.740;22.908;2024-02-16T00:18:38;24.15;;;12.35;;
45792;SDS011;31495;42.740;22.908;2024-02-16T00:19:38;22.10;;;11.50;;
45792;SDS011;31495;42.740;22.908;2024-02-16T00:20:37;21.52;;;11.88;;
45792;SDS011;31495;42.740;22.908;2024-02-16T00:21:37;20.70;;;10.70;;
45792;SDS011;31495;42.740;22.908;2024-02-16T00:22:41;20.85;;;10.32;;
45792;SDS011;31495;42.740;22.908;2024-02-16T00:23:40;18.58;;;10.35;;
45792;SDS011;31495;42.740;22.908;2024-02-16T00:24:40;20.08;;;10.30;;
45792;SDS011;31495;42.740;22.908;2024-02-16T00:25:39;19.52;;;10.52;;
45792;SDS011;31495;42.740;22.908;2024-02-16T00:26:39;22.38;;;11.10;;
45792;SDS011;31495;42.740;22.908;2024-02-16T00:27:39;18.15;;;9.65;;
45792;SDS011;31495;42.740;22.908;2024-02-16T00:28:39;17.70;;;9.85;;
45792;SDS011;31495;42.740;22.908;2024-02-16T00:30:41;17.13;;;9.48;;
45792;SDS011;31495;42.740;22.908;2024-02-16T00:31:41;16.40;;;10.05;;
45792;SDS011;31495;42.740;22.908;2024-02-16T00:32:41;17.40;;;8.45;;
45792;SDS011;31495;42.740;22.908;2024-02-16T00:33:40;19.58;;;9.23;;
45792;SDS011;31495;42.740;22.908;2024-02-16T00:34:40;16.35;;;9.18;;
45792;SDS011;31495;42.740;22.908;2024-02-16T00:35:40;21.45;;;9.68;;
45792;SDS011;31495;42.740;22.908;2024-02-16T00:36:40;15.95;;;9.45;;
45792;SDS011;31495;42.740;22.908;2024-02-16T00:37:39;17.92;;;9.32;;
45792;SDS011;31495;42.740;22.908;2024-02-16T00:38:38;16.00;;;9.95;;
45792;SDS011;31495;42.740;22.908;2024-02-16T00:39:38;15.23;;;8.95;;
45792;SDS011;31495;42.740;22.908;2024-02-16T00:40:41;20.95;;;9.75;;
45792;SDS011;31495;42.740;22.908;2024-02-16T00:41:42;17.38;;;9.23;;
45792;SDS011;31495;42.740;22.908;2024-02-16T00:42:42;15.15;;;8.68;;
45792;SDS011;31495;42.740;22.908;2024-02-16T00:43:41;17.83;;;9.07;;
45792;SDS011;31495;42.740;22.908;2024-02-16T00:44:44;15.35;;;8.32;;
45792;SDS011;31495;42.740;22.908;2024-02-16T00:45:43;19.65;;;9.10;;
45792;SDS011;31495;42.740;22.908;2024-02-16T00:46:44;19.02;;;8.88;;
45792;SDS011;31495;42.740;22.908;2024-02-16T00:47:43;22.85;;;8.80;;
45792;SDS011;31495;42.740;22.908;2024-02-16T00:48:44;17.35;;;9.18;;
45792;SDS011;31495;42.740;22.908;2024-02-16T00:49:45;14.57;;;7.85;;
45792;SDS011;31495;42.740;22.908;2024-02-16T00:50:45;15.80;;;8.73;;
45792;SDS011;31495;42.740;22.908;2024-02-16T00:51:44;17.58;;;9.73;;
45792;SDS011;31495;42.740;22.908;2024-02-16T00:52:44;25.02;;;9.00;;
45792;SDS011;31495;42.740;22.908;2024-02-16T00:53:44;17.70;;;9.40;;
45792;SDS011;31495;42.740;22.908;2024-02-16T00:54:44;16.25;;;9.38;;
45792;SDS011;31495;42.740;22.908;2024-02-16T00:55:43;18.05;;;8.90;;
45792;SDS011;31495;42.740;22.908;2024-02-16T00:56:44;20.13;;;9.07;;
45792;SDS011;31495;42.740;22.908;2024-02-16T00:57:44;17.48;;;8.95;;
45792;SDS011;31495;42.740;22.908;2024-02-16T00:58:43;14.13;;;7.90;;
45792;SDS011;31495;42.740;22.908;2024-02-16T00:59:42;15.50;;;8.88;;
45792;SDS011;31495;42.740;22.908;2024-02-16T01:00:42;17.30;;;8.82;;
45792;SDS011;31495;42.740;22.908;2024-02-16T01:01:43;14.27;;;7.65;;
45792;SDS011;31495;42.740;22.908;2024-02-16T01:02:42;13.82;;;8.32;;
45792;SDS011;31495;42.740;22.908;2024-02-16T01:03:42;18.25;;;9.10;;
45792;SDS011;31495;42.740;22.908;2024-02-16T01:04:42;16.38;;;8.65;;
45792;SDS011;31495;42.740;22.908;2024-02-16T01:05:41;14.95;;;8.05;;
45792;SDS011;31495;42.740;22.908;2024-02-16T01:06:41;16.67;;;8.50;;
45792;SDS011;31495;42.740;22.908;2024-02-16T01:07:40;14.10;;;7.68;;
45792;SDS011;31495;42.740;22.908;2024-02-16T01:08:41;19.00;;;9.15;;
45792;SDS011;31495;42.740;22.908;2024-02-16T01:09:41;14.93;;;7.70;;
45792;SDS011;31495;42.740;22.908;2024-02-16T01:10:41;16.98;;;8.80;;
45792;SDS011;31495;42.740;22.908;2024-02-16T01:11:41;14.65;;;8.68;;
45792;SDS011;31495;42.740;22.908;2024-02-16T01:12:41;15.70;;;7.90;;
45792;SDS011;31495;42.740;22.908;2024-02-16T01:13:40;19.00;;;9.77;;
45792;SDS011;31495;42.740;22.908;2024-02-16T01:14:40;16.15;;;8.60;;
45792;SDS011;31495;42.740;22.908;2024-02-16T01:15:40;19.45;;;8.18;;
45792;SDS011;31495;42.740;22.908;2024-02-16T01:16:40;14.75;;;8.75;;
45792;SDS011;31495;42.740;22.908;2024-02-16T01:17:39;19.23;;;8.88;;
45792;SDS011;31495;42.740;22.908;2024-02-16T01:18:39;20.60;;;8.50;;
45792;SDS011;31495;42.740;22.908;2024-02-16T01:19:39;17.77;;;8.55;;
45792;SDS011;31495;42.740;22.908;2024-02-16T01:20:39;18.25;;;8.40;;
45792;SDS011;31495;42.740;22.908;2024-02-16T01:21:38;18.27;;;9.52;;
45792;SDS011;31495;42.740;22.908;2024-02-16T01:22:39;16.17;;;8.65;;
45792;SDS011;31495;42.740;22.908;2024-02-16T01:23:39;17.45;;;9.05;;
45792;SDS011;31495;42.740;22.908;2024-02-16T01:24:38;20.17;;;9.48;;
45792;SDS011;31495;42.740;22.908;2024-02-16T01:25:38;18.27;;;8.65;;
45792;SDS011;31495;42.740;22.908;2024-02-16T01:26:37;15.73;;;9.32;;
45792;SDS011;31495;42.740;22.908;2024-02-16T01:27:37;18.58;;;9.02;;
45792;SDS011;31495;42.740;22.908;2024-02-16T01:28:36;20.15;;;8.77;;
45792;SDS011;31495;42.740;22.908;2024-02-16T01:29:36;17.92;;;8.73;;
45792;SDS011;31495;42.740;22.908;2024-02-16T01:30:36;19.30;;;9.57;;
45792;SDS011;31495;42.740;22.908;2024-02-16T01:31:36;35.33;;;21.23;;
45792;SDS011;31495;42.740;22.908;2024-02-16T01:32:36;27.70;;;18.95;;
45792;SDS011;31495;42.740;22.908;2024-02-16T01:33:35;23.48;;;13.85;;
45792;SDS011;31495;42.740;22.908;2024-02-16T01:34:36;19.35;;;9.68;;
45792;SDS011;31495;42.740;22.908;2024-02-16T01:35:36;14.98;;;8.35;;
45792;SDS011;31495;42.740;22.908;2024-02-16T01:36:36;18.13;;;9.20;;
45792;SDS011;31495;42.740;22.908;2024-02-16T01:37:35;19.52;;;8.25;;
45792;SDS011;31495;42.740;22.908;2024-02-16T01:38:35;20.45;;;9.60;;
45792;SDS011;31495;42.740;22.908;2024-02-16T01:39:34;18.73;;;8.80;;
45792;SDS011;31495;42.740;22.908;2024-02-16T01:40:34;18.08;;;8.82;;
45792;SDS011;31495;42.740;22.908;2024-02-16T01:41:33;14.80;;;8.48;;
45792;SDS011;31495;42.740;22.908;2024-02-16T01:42:33;16.10;;;10.07;;
45792;SDS011;31495;42.740;22.908;2024-02-16T01:43:32;16.65;;;9.85;;
45792;SDS011;31495;42.740;22.908;2024-02-16T01:44:32;17.08;;;9.75;;
45792;SDS011;31495;42.740;22.908;2024-02-16T01:45:31;16.60;;;9.30;;
45792;SDS011;31495;42.740;22.908;2024-02-16T01:46:31;17.00;;;8.85;;
45792;SDS011;31495;42.740;22.908;2024-02-16T01:48:32;20.63;;;8.38;;
45792;SDS011;31495;42.740;22.908;2024-02-16T01:49:32;16.42;;;8.05;;
45792;SDS011;31495;42.740;22.908;2024-02-16T01:50:32;16.52;;;8.02;;
45792;SDS011;31495;42.740;22.908;2024-02-16T01:51:32;16.17;;;8.50;;
45792;SDS011;31495;42.740;22.908;2024-02-16T01:52:34;17.02;;;8.10;;
45792;SDS011;31495;42.740;22.908;2024-02-16T01:53:35;12.90;;;7.45;;
45792;SDS011;31495;42.740;22.908;2024-02-16T01:54:36;15.90;;;7.70;;
45792;SDS011;31495;42.740;22.908;2024-02-16T01:55:37;16.40;;;7.57;;
45792;SDS011;31495;42.740;22.908;2024-02-16T01:56:37;14.18;;;7.53;;
45792;SDS011;31495;42.740;22.908;2024-02-16T01:57:40;14.95;;;7.40;;
45792;SDS011;31495;42.740;22.908;2024-02-16T01:58:42;15.48;;;7.47;;
45792;SDS011;31495;42.740;22.908;2024-02-16T01:59:41;13.65;;;7.55;;
45792;SDS011;31495;42.740;22.908;2024-02-16T02:00:42;13.07;;;7.13;;
45792;SDS011;31495;42.740;22.908;2024-02-16T02:01:41;12.15;;;6.57;;
45792;SDS011;31495;42.740;22.908;2024-02-16T02:02:41;13.98;;;7.00;;
45792;SDS011;31495;42.740;22.908;2024-02-16T02:03:44;13.98;;;7.43;;
45792;SDS011;31495;42.740;22.908;2024-02-16T02:04:44;15.80;;;7.82;;
45792;SDS011;31495;42.740;22.908;2024-02-16T02:05:44;17.60;;;8.80;;
45792;SDS011;31495;42.740;22.908;2024-02-16T02:06:45;15.25;;;7.32;;
45792;SDS011;31495;42.740;22.908;2024-02-16T02:07:44;13.40;;;6.78;;
45792;SDS011;31495;42.740;22.908;2024-02-16T02:08:43;13.52;;;7.75;;
45792;SDS011;31495;42.740;22.908;2024-02-16T02:09:43;14.13;;;7.80;;
45792;SDS011;31495;42.740;22.908;2024-02-16T02:10:42;14.07;;;7.28;;
45792;SDS011;31495;42.740;22.908;2024-02-16T02:11:43;19.33;;;7.88;;
45792;SDS011;31495;42.740;22.908;2024-02-16T02:12:43;14.00;;;7.25;;
45792;SDS011;31495;42.740;22.908;2024-02-16T02:13:43;13.65;;;7.50;;
45792;SDS011;31495;42.740;22.908;2024-02-16T02:14:42;16.38;;;8.45;;
45792;SDS011;31495;42.740;22.908;2024-02-16T02:15:42;11.60;;;7.15;;
45792;SDS011;31495;42.740;22.908;2024-02-16T02:16:41;14.52;;;7.85;;
45792;SDS011;31495;42.740;22.908;2024-02-16T02:17:41;16.40;;;8.35;;
45792;SDS011;31495;42.740;22.908;2024-02-16T02:18:40;18.55;;;8.65;;
45792;SDS011;31495;42.740;22.908;2024-02-16T02:19:40;17.25;;;8.70;;
45792;SDS011;31495;42.740;22.908;2024-02-16T02:20:39;13.13;;;7.57;;
45792;SDS011;31495;42.740;22.908;2024-02-16T02:21:39;12.32;;;7.20;;
45792;SDS011;31495;42.740;22.908;2024-02-16T02:22:38;14.57;;;8.25;;
45792;SDS011;31495;42.740;22.908;2024-02-16T02:23:38;14.90;;;7.68;;
45792;SDS011;31495;42.740;22.908;2024-02-16T02:24:37;12.55;;;7.60;;
45792;SDS011;31495;42.740;22.908;2024-02-16T02:25:37;14.65;;;8.32;;
45792;SDS011;31495;42.740;22.908;2024-02-16T02:26:37;14.60;;;8.48;;
45792;SDS011;31495;42.740;22.908;2024-02-16T02:27:38;14.57;;;7.82;;
45792;SDS011;31495;42.740;22.908;2024-02-16T02:28:38;17.55;;;7.35;;
45792;SDS011;31495;42.740;22.908;2024-02-16T02:29:37;16.23;;;8.05;;
45792;SDS011;31495;42.740;22.908;2024-02-16T02:30:36;16.33;;;8.30;;
45792;SDS011;31495;42.740;22.908;2024-02-16T02:31:37;15.10;;;7.45;;
45792;SDS011;31495;42.740;22.908;2024-02-16T02:32:36;15.93;;;7.90;;
45792;SDS011;31495;42.740;22.908;2024-02-16T02:33:35;13.35;;;7.70;;
45792;SDS011;31495;42.740;22.908;2024-02-16T02:34:35;19.75;;;7.97;;
45792;SDS011;31495;42.740;22.908;2024-02-16T02:35:38;18.02;;;8.68;;
45792;SDS011;31495;42.740;22.908;2024-02-16T02:36:38;13.23;;;7.70;;
45792;SDS011;31495;42.740;22.908;2024-02-16T02:37:39;18.23;;;8.65;;
45792;SDS011;31495;42.740;22.908;2024-02-16T02:38:39;15.88;;;8.23;;
45792;SDS011;31495;42.740;22.908;2024-02-16T02:39:39;17.05;;;8.70;;
45792;SDS011;31495;42.740;22.908;2024-02-16T02:40:39;15.18;;;8.48;;
45792;SDS011;31495;42.740;22.908;2024-02-16T02:41:39;20.25;;;9.30;;
45792;SDS011;31495;42.740;22.908;2024-02-16T02:42:38;14.82;;;7.80;;
45792;SDS011;31495;42.740;22.908;2024-02-16T02:43:38;12.60;;;7.45;;
45792;SDS011;31495;42.740;22.908;2024-02-16T02:44:37;16.33;;;8.63;;
45792;SDS011;31495;42.740;22.908;2024-02-16T02:45:37;13.98;;;8.18;;
45792;SDS011;31495;42.740;22.908;2024-02-16T02:46:36;15.15;;;8.18;;
45792;SDS011;31495;42.740;22.908;2024-02-16T02:47:36;15.90;;;8.13;;
45792;SDS011;31495;42.740;22.908;2024-02-16T02:48:36;16.00;;;7.90;;
45792;SDS011;31495;42.740;22.908;2024-02-16T02:49:36;15.43;;;8.55;;
45792;SDS011;31495;42.740;22.908;2024-02-16T02:50:35;17.98;;;7.55;;
45792;SDS011;31495;42.740;22.908;2024-02-16T02:51:35;15.80;;;8.00;;
45792;SDS011;31495;42.740;22.908;2024-02-16T02:52:34;16.35;;;8.60;;
45792;SDS011;31495;42.740;22.908;2024-02-16T02:53:34;14.18;;;7.15;;
45792;SDS011;31495;42.740;22.908;2024-02-16T02:54:34;13.20;;;7.18;;
45792;SDS011;31495;42.740;22.908;2024-02-16T02:55:34;15.18;;;7.35;;
45792;SDS011;31495;42.740;22.908;2024-02-16T02:56:34;16.45;;;7.72;;
45792;SDS011;31495;42.740;22.908;2024-02-16T02:57:34;13.27;;;7.53;;
45792;SDS011;31495;42.740;22.908;2024-02-16T02:58:34;13.75;;;7.30;;
45792;SDS011;31495;42.740;22.908;2024-02-16T02:59:34;13.77;;;8.25;;
45792;SDS011;31495;42.740;22.908;2024-02-16T03:00:34;12.63;;;7.40;;
45792;SDS011;31495;42.740;22.908;2024-02-16T03:01:35;15.15;;;7.30;;
45792;SDS011;31495;42.740;22.908;2024-02-16T03:02:34;14.50;;;6.72;;
45792;SDS011;31495;42.740;22.908;2024-02-16T03:03:34;13.15;;;7.05;;
45792;SDS011;31495;42.740;22.908;2024-02-16T03:04:34;16.02;;;7.25;;
45792;SDS011;31495;42.740;22.908;2024-02-16T03:05:35;14.00;;;8.10;;
45792;SDS011;31495;42.740;22.908;2024-02-16T03:06:35;16.10;;;7.80;;
45792;SDS011;31495;42.740;22.908;2024-02-16T03:07:35;13.35;;;7.80;;
45792;SDS011;31495;42.740;22.908;2024-02-16T03:08:35;13.95;;;7.35;;
45792;SDS011;31495;42.740;22.908;2024-02-16T03:09:35;12.30;;;7.35;;
45792;SDS011;31495;42.740;22.908;2024-02-16T03:10:35;15.60;;;7.93;;
45792;SDS011;31495;42.740;22.908;2024-02-16T03:11:35;18.10;;;7.97;;
45792;SDS011;31495;42.740;22.908;2024-02-16T03:12:35;19.00;;;7.78;;
45792;SDS011;31495;42.740;22.908;2024-02-16T03:13:35;16.73;;;7.22;;
45792;SDS011;31495;42.740;22.908;2024-02-16T03:14:36;14.90;;;7.75;;
45792;SDS011;31495;42.740;22.908;2024-02-16T03:15:36;13.25;;;7.93;;
45792;SDS011;31495;42.740;22.908;2024-02-16T03:16:36;14.13;;;7.43;;
45792;SDS011;31495;42.740;22.908;2024-02-16T03:17:36;14.93;;;7.93;;
45792;SDS011;31495;42.740;22.908;2024-02-16T03:18:36;16.80;;;9.00;;
45792;SDS011;31495;42.740;22.908;2024-02-16T03:19:36;17.52;;;8.98;;
45792;SDS011;31495;42.740;22.908;2024-02-16T03:20:36;15.85;;;9.43;;
45792;SDS011;31495;42.740;22.908;2024-02-16T03:21:36;15.43;;;8.10;;
45792;SDS011;31495;42.740;22.908;2024-02-16T03:22:36;16.48;;;8.85;;
45792;SDS011;31495;42.740;22.908;2024-02-16T03:23:36;19.35;;;9.15;;
45792;SDS011;31495;42.740;22.908;2024-02-16T03:24:37;15.63;;;9.05;;
45792;SDS011;31495;42.740;22.908;2024-02-16T03:25:36;16.13;;;9.15;;
45792;SDS011;31495;42.740;22.908;2024-02-16T03:26:36;14.55;;;7.65;;
45792;SDS011;31495;42.740;22.908;2024-02-16T03:27:36;17.95;;;9.00;;
45792;SDS011;31495;42.740;22.908;2024-02-16T03:28:37;14.77;;;8.93;;
45792;SDS011;31495;42.740;22.908;2024-02-16T03:29:37;16.60;;;8.57;;
45792;SDS011;31495;42.740;22.908;2024-02-16T03:30:39;20.08;;;8.95;;
45792;SDS011;31495;42.740;22.908;2024-02-16T03:31:39;20.65;;;11.85;;
45792;SDS011;31495;42.740;22.908;2024-02-16T03:32:39;18.58;;;10.68;;
45792;SDS011;31495;42.740;22.908;2024-02-16T03:33:39;13.77;;;8.07;;
45792;SDS011;31495;42.740;22.908;2024-02-16T03:34:38;16.45;;;8.95;;
45792;SDS011;31495;42.740;22.908;2024-02-16T03:35:37;13.90;;;7.72;;
45792;SDS011;31495;42.740;22.908;2024-02-16T03:36:37;16.92;;;9.20;;
45792;SDS011;31495;42.740;22.908;2024-02-16T03:37:37;16.60;;;9.07;;
45792;SDS011;31495;42.740;22.908;2024-02-16T03:38:43;15.93;;;8.70;;
45792;SDS011;31495;42.740;22.908;2024-02-16T03:39:43;15.55;;;8.88;;
45792;SDS011;31495;42.740;22.908;2024-02-16T03:40:43;16.80;;;8.55;;
45792;SDS011;31495;42.740;22.908;2024-02-16T03:41:42;16.30;;;8.25;;
45792;SDS011;31495;42.740;22.908;2024-02-16T03:42:41;15.88;;;8.27;;
45792;SDS011;31495;42.740;22.908;2024-02-16T03:43:41;15.75;;;8.30;;
45792;SDS011;31495;42.740;22.908;2024-02-16T03:44:41;18.70;;;9.63;;
45792;SDS011;31495;42.740;22.908;2024-02-16T03:45:41;20.08;;;11.40;;
45792;SDS011;31495;42.740;22.908;2024-02-16T03:46:40;20.85;;;11.55;;
45792;SDS011;31495;42.740;22.908;2024-02-16T03:47:40;21.92;;;10.27;;
45792;SDS011;31495;42.740;22.908;2024-02-16T03:48:41;18.75;;;9.10;;
45792;SDS011;31495;42.740;22.908;2024-02-16T03:49:43;18.25;;;9.55;;
45792;SDS011;31495;42.740;22.908;2024-02-16T03:50:43;14.85;;;8.55;;
45792;SDS011;31495;42.740;22.908;2024-02-16T03:51:42;14.85;;;8.30;;
45792;SDS011;31495;42.740;22.908;2024-02-16T03:52:42;19.85;;;9.50;;
45792;SDS011;31495;42.740;22.908;2024-02-16T03:53:41;19.27;;;11.15;;
45792;SDS011;31495;42.740;22.908;2024-02-16T03:54:41;25.45;;;12.20;;
45792;SDS011;31495;42.740;22.908;2024-02-16T03:55:43;32.17;;;17.13;;
45792;SDS011;31495;42.740;22.908;2024-02-16T03:56:43;39.58;;;21.63;;
45792;SDS011;31495;42.740;22.908;2024-02-16T03:57:44;37.70;;;20.48;;
45792;SDS011;31495;42.740;22.908;2024-02-16T03:58:43;44.03;;;21.83;;
45792;SDS011;31495;42.740;22.908;2024-02-16T03:59:43;40.13;;;18.25;;
45792;SDS011;31495;42.740;22.908;2024-02-16T04:00:43;30.63;;;16.77;;
45792;SDS011;31495;42.740;22.908;2024-02-16T04:01:42;26.33;;;14.38;;
45792;SDS011;31495;42.740;22.908;2024-02-16T04:02:41;23.80;;;12.07;;
45792;SDS011;31495;42.740;22.908;2024-02-16T04:03:41;26.08;;;13.48;;
45792;SDS011;31495;42.740;22.908;2024-02-16T04:04:41;24.35;;;13.40;;
45792;SDS011;31495;42.740;22.908;2024-02-16T04:05:40;24.95;;;12.57;;
45792;SDS011;31495;42.740;22.908;2024-02-16T04:06:40;19.10;;;11.13;;
45792;SDS011;31495;42.740;22.908;2024-02-16T04:07:40;21.13;;;11.15;;
45792;SDS011;31495;42.740;22.908;2024-02-16T04:08:40;21.15;;;11.88;;
45792;SDS011;31495;42.740;22.908;2024-02-16T04:09:40;19.27;;;10.93;;
45792;SDS011;31495;42.740;22.908;2024-02-16T04:10:40;17.27;;;9.32;;
45792;SDS011;31495;42.740;22.908;2024-02-16T04:11:40;16.10;;;9.35;;
45792;SDS011;31495;42.740;22.908;2024-02-16T04:12:40;18.42;;;10.18;;
45792;SDS011;31495;42.740;22.908;2024-02-16T04:13:41;18.90;;;10.10;;
45792;SDS011;31495;42.740;22.908;2024-02-16T04:14:41;19.42;;;10.82;;
45792;SDS011;31495;42.740;22.908;2024-02-16T04:15:40;19.48;;;10.80;;
45792;SDS011;31495;42.740;22.908;2024-02-16T04:16:42;21.35;;;10.63;;
45792;SDS011;31495;42.740;22.908;2024-02-16T04:17:43;24.60;;;11.60;;
45792;SDS011;31495;42.740;22.908;2024-02-16T04:18:42;24.73;;;11.32;;
45792;SDS011;31495;42.740;22.908;2024-02-16T04:19:42;27.02;;;13.15;;
45792;SDS011;31495;42.740;22.908;2024-02-16T04:20:43;29.40;;;12.98;;
45792;SDS011;31495;42.740;22.908;2024-02-16T04:21:42;24.13;;;12.30;;
45792;SDS011;31495;42.740;22.908;2024-02-16T04:22:42;23.60;;;11.45;;
45792;SDS011;31495;42.740;22.908;2024-02-16T04:23:41;22.98;;;11.32;;
45792;SDS011;31495;42.740;22.908;2024-02-16T04:24:41;26.75;;;12.27;;
45792;SDS011;31495;42.740;22.908;2024-02-16T04:25:44;25.67;;;13.20;;
45792;SDS011;31495;42.740;22.908;2024-02-16T04:26:43;32.72;;;15.65;;
45792;SDS011;31495;42.740;22.908;2024-02-16T04:27:43;24.48;;;13.18;;
45792;SDS011;31495;42.740;22.908;2024-02-16T04:28:43;23.85;;;12.90;;
45792;SDS011;31495;42.740;22.908;2024-02-16T04:29:42;24.50;;;13.20;;
45792;SDS011;31495;42.740;22.908;2024-02-16T04:30:42;24.45;;;12.77;;
45792;SDS011;31495;42.740;22.908;2024-02-16T04:31:42;19.25;;;9.93;;
45792;SDS011;31495;42.740;22.908;2024-02-16T04:32:43;12.50;;;6.97;;
45792;SDS011;31495;42.740;22.908;2024-02-16T04:33:43;13.18;;;6.72;;
45792;SDS011;31495;42.740;22.908;2024-02-16T04:34:42;12.10;;;6.55;;
45792;SDS011;31495;42.740;22.908;2024-02-16T04:35:42;13.05;;;6.60;;
45792;SDS011;31495;42.740;22.908;2024-02-16T04:36:45;11.60;;;6.78;;
45792;SDS011;31495;42.740;22.908;2024-02-16T04:37:45;17.58;;;7.82;;
45792;SDS011;31495;42.740;22.908;2024-02-16T04:38:44;15.85;;;8.15;;
45792;SDS011;31495;42.740;22.908;2024-02-16T04:39:47;14.95;;;8.60;;
45792;SDS011;31495;42.740;22.908;2024-02-16T04:40:46;19.17;;;11.93;;
45792;SDS011;31495;42.740;22.908;2024-02-16T04:41:45;16.48;;;7.50;;
45792;SDS011;31495;42.740;22.908;2024-02-16T04:42:45;17.50;;;7.78;;
45792;SDS011;31495;42.740;22.908;2024-02-16T04:43:44;20.10;;;8.38;;
45792;SDS011;31495;42.740;22.908;2024-02-16T04:44:44;14.73;;;7.38;;
45792;SDS011;31495;42.740;22.908;2024-02-16T04:45:43;14.75;;;7.47;;
45792;SDS011;31495;42.740;22.908;2024-02-16T04:46:43;12.32;;;6.88;;
45792;SDS011;31495;42.740;22.908;2024-02-16T04:47:43;11.35;;;5.40;;
45792;SDS011;31495;42.740;22.908;2024-02-16T04:48:43;15.30;;;8.20;;
45792;SDS011;31495;42.740;22.908;2024-02-16T04:49:43;12.88;;;7.50;;
45792;SDS011;31495;42.740;22.908;2024-02-16T04:50:42;11.95;;;7.65;;
45792;SDS011;31495;42.740;22.908;2024-02-16T04:51:43;15.45;;;7.32;;
45792;SDS011;31495;42.740;22.908;2024-02-16T04:52:44;15.15;;;7.95;;
45792;SDS011;31495;42.740;22.908;2024-02-16T04:53:44;16.33;;;7.88;;
45792;SDS011;31495;42.740;22.908;2024-02-16T04:54:44;16.02;;;8.38;;
45792;SDS011;31495;42.740;22.908;2024-02-16T04:55:44;12.65;;;6.95;;
45792;SDS011;31495;42.740;22.908;2024-02-16T04:56:44;13.32;;;7.88;;
45792;SDS011;31495;42.740;22.908;2024-02-16T04:57:44;13.57;;;7.63;;
45792;SDS011;31495;42.740;22.908;2024-02-16T04:58:44;18.92;;;9.02;;
45792;SDS011;31495;42.740;22.908;2024-02-16T04:59:44;20.70;;;10.23;;
45792;SDS011;31495;42.740;22.908;2024-02-16T05:00:44;15.60;;;9.60;;
45792;SDS011;31495;42.740;22.908;2024-02-16T05:01:46;17.50;;;10.40;;
45792;SDS011;31495;42.740;22.908;2024-02-16T05:02:46;23.98;;;10.88;;
45792;SDS011;31495;42.740;22.908;2024-02-16T05:03:45;19.48;;;10.32;;
45792;SDS011;31495;42.740;22.908;2024-02-16T05:04:45;17.58;;;10.68;;
45792;SDS011;31495;42.740;22.908;2024-02-16T05:05:45;20.85;;;10.50;;
45792;SDS011;31495;42.740;22.908;2024-02-16T05:06:45;14.70;;;6.93;;
45792;SDS011;31495;42.740;22.908;2024-02-16T05:07:49;18.65;;;7.55;;
45792;SDS011;31495;42.740;22.908;2024-02-16T05:08:48;13.93;;;6.90;;
45792;SDS011;31495;42.740;22.908;2024-02-16T05:09:49;17.43;;;8.13;;
45792;SDS011;31495;42.740;22.908;2024-02-16T05:10:49;15.02;;;8.18;;
45792;SDS011;31495;42.740;22.908;2024-02-16T05:11:48;15.13;;;8.48;;
45792;SDS011;31495;42.740;22.908;2024-02-16T05:12:50;11.50;;;6.88;;
45792;SDS011;31495;42.740;22.908;2024-02-16T05:13:50;17.50;;;8.35;;
45792;SDS011;31495;42.740;22.908;2024-02-16T05:14:50;15.73;;;8.88;;
45792;SDS011;31495;42.740;22.908;2024-02-16T05:15:50;16.13;;;9.63;;
45792;SDS011;31495;42.740;22.908;2024-02-16T05:16:49;15.98;;;9.52;;
45792;SDS011;31495;42.740;22.908;2024-02-16T05:17:50;22.05;;;10.95;;
45792;SDS011;31495;42.740;22.908;2024-02-16T05:18:50;15.90;;;9.27;;
45792;SDS011;31495;42.740;22.908;2024-02-16T05:19:49;18.45;;;10.10;;
45792;SDS011;31495;42.740;22.908;2024-02-16T05:20:49;18.00;;;9.90;;
45792;SDS011;31495;42.740;22.908;2024-02-16T05:21:49;17.27;;;10.35;;
45792;SDS011;31495;42.740;22.908;2024-02-16T05:22:48;17.85;;;9.88;;
45792;SDS011;31495;42.740;22.908;2024-02-16T05:23:48;16.23;;;9.02;;
45792;SDS011;31495;42.740;22.908;2024-02-16T05:24:47;13.40;;;7.10;;
45792;SDS011;31495;42.740;22.908;2024-02-16T05:25:47;13.15;;;7.72;;
45792;SDS011;31495;42.740;22.908;2024-02-16T05:26:47;16.02;;;8.35;;
45792;SDS011;31495;42.740;22.908;2024-02-16T05:27:47;18.27;;;9.20;;
45792;SDS011;31495;42.740;22.908;2024-02-16T05:28:49;31.30;;;11.45;;
45792;SDS011;31495;42.740;22.908;2024-02-16T05:29:49;32.30;;;11.55;;
45792;SDS011;31495;42.740;22.908;2024-02-16T05:30:49;27.95;;;11.23;;
45792;SDS011;31495;42.740;22.908;2024-02-16T05:31:52;29.50;;;11.70;;
45792;SDS011;31495;42.740;22.908;2024-02-16T05:32:52;26.83;;;13.23;;
45792;SDS011;31495;42.740;22.908;2024-02-16T05:33:52;23.17;;;13.30;;
45792;SDS011;31495;42.740;22.908;2024-02-16T05:34:52;30.05;;;14.07;;
45792;SDS011;31495;42.740;22.908;2024-02-16T05:35:51;24.50;;;13.35;;
45792;SDS011;31495;42.740;22.908;2024-02-16T05:36:54;28.85;;;13.07;;
45792;SDS011;31495;42.740;22.908;2024-02-16T05:37:54;35.95;;;13.43;;
45792;SDS011;31495;42.740;22.908;2024-02-16T05:38:54;22.90;;;13.15;;
45792;SDS011;31495;42.740;22.908;2024-02-16T05:40:08;18.10;;;11.00;;
45792;SDS011;31495;42.740;22.908;2024-02-16T05:41:18;16.58;;;8.23;;
45792;SDS011;31495;42.740;22.908;2024-02-16T05:42:18;16.98;;;8.52;;
45792;SDS011;31495;42.740;22.908;2024-02-16T05:43:18;15.82;;;8.90;;
45792;SDS011;31495;42.740;22.908;2024-02-16T05:44:19;18.08;;;9.30;;
45792;SDS011;31495;42.740;22.908;2024-02-16T05:45:19;19.35;;;10.45;;
45792;SDS011;31495;42.740;22.908;2024-02-16T05:46:22;20.27;;;10.07;;
45792;SDS011;31495;42.740;22.908;2024-02-16T05:47:23;24.83;;;12.32;;
45792;SDS011;31495;42.740;22.908;2024-02-16T05:48:22;22.52;;;11.05;;
45792;SDS011;31495;42.740;22.908;2024-02-16T05:49:23;22.00;;;11.43;;
45792;SDS011;31495;42.740;22.908;2024-02-16T05:50:23;24.17;;;10.57;;
45792;SDS011;31495;42.740;22.908;2024-02-16T05:51:23;20.65;;;10.48;;
45792;SDS011;31495;42.740;22.908;2024-02-16T05:52:22;18.95;;;9.02;;
45792;SDS011;31495;42.740;22.908;2024-02-16T05:53:22;26.50;;;11.57;;